Time;durP1;ratioP1;P1;durP2;ratioP2;P2;SDS_P1;SDS_P2;PMS_P1;PMS_P2;Temp;Humidity;BMP_temperature;BMP_pressure;BME280_temperature;BME280_humidity;BME280_pressure;Samples;Min_cycle;Max_cycle;Signal;HPM_P1;HPM_P2
2023/10/08 00:01:17;;;;;;;49.10;38.70;;;19.40;87.70;;;;;;4996237;28;20283;-64
2023/10/08 00:03:49;;;;;;;57.40;39.53;;;19.40;87.70;;;;;;4993803;28;20227;-65
2023/10/08 00:06:21;;;;;;;53.77;39.80;;;19.30;87.80;;;;;;4996211;28;20647;-64
2023/10/08 00:08:49;;;;;;;55.23;38.87;;;19.30;87.90;;;;;;4995342;28;20222;-65
2023/10/08 00:11:22;;;;;;;55.20;40.77;;;19.30;88.00;;;;;;4996629;28;20199;-64
2023/10/08 00:13:49;;;;;;;57.20;40.83;;;19.20;88.10;;;;;;4994021;28;20570;-64
2023/10/08 00:16:17;;;;;;;55.63;41.33;;;19.30;88.20;;;;;;4996689;28;20212;-64
2023/10/08 00:18:52;;;;;;;56.00;41.73;;;19.20;88.30;;;;;;4993185;28;20247;-64
2023/10/08 00:21:33;;;;;;;65.83;42.80;;;19.20;88.10;;;;;;4993481;28;20211;-64
2023/10/08 00:24:00;;;;;;;60.90;42.13;;;19.20;88.10;;;;;;4995275;28;20217;-64
2023/10/08 00:26:31;;;;;;;56.13;40.63;;;19.20;88.10;;;;;;4995529;28;20223;-65
2023/10/08 00:29:06;;;;;;;57.13;41.60;;;19.10;88.20;;;;;;4997270;28;20212;-65
2023/10/08 00:31:38;;;;;;;64.07;42.33;;;19.10;88.30;;;;;;4996252;28;20203;-64
2023/10/08 00:34:05;;;;;;;52.47;41.33;;;19.10;88.30;;;;;;4995001;28;20215;-64
2023/10/08 00:36:34;;;;;;;52.53;40.57;;;19.10;88.50;;;;;;4980375;28;20200;-65
2023/10/08 00:39:08;;;;;;;52.67;40.73;;;19.00;88.60;;;;;;4995700;28;20210;-63
2023/10/08 00:41:35;;;;;;;61.17;43.17;;;19.00;88.80;;;;;;4995180;28;20205;-64
2023/10/08 00:44:05;;;;;;;56.87;43.33;;;19.00;88.90;;;;;;4999984;28;20656;-65
2023/10/08 00:46:35;;;;;;;57.53;41.63;;;19.00;89.10;;;;;;4994864;28;20197;-65
2023/10/08 00:49:23;;;;;;;56.17;42.00;;;19.00;89.00;;;;;;4999273;28;20192;-65
2023/10/08 00:57:21;;;;;;;62.27;45.63;;;19.00;89.30;;;;;;4995194;28;20714;-64
2023/10/08 00:59:57;;;;;;;71.70;44.73;;;18.90;89.30;;;;;;4996148;28;20196;-64
2023/10/08 01:02:42;;;;;;;65.17;44.33;;;18.90;89.30;;;;;;4996595;28;20211;-64
2023/10/08 01:05:18;;;;;;;61.97;44.63;;;18.90;89.40;;;;;;4995964;28;20226;-64
2023/10/08 01:07:48;;;;;;;54.50;41.57;;;18.80;89.60;;;;;;5000899;28;20234;-65
2023/10/08 01:10:19;;;;;;;64.30;44.27;;;18.80;89.80;;;;;;4993198;28;20231;-64
2023/10/08 01:15:29;;;;;;;67.00;43.93;;;18.70;90.20;;;;;;4993785;28;20300;-64
2023/10/08 01:18:06;;;;;;;58.07;42.47;;;18.70;90.00;;;;;;4998548;28;20204;-64
2023/10/08 01:20:34;;;;;;;63.63;43.07;;;18.70;90.00;;;;;;4998377;28;20196;-65
2023/10/08 01:23:10;;;;;;;59.20;44.13;;;18.60;90.10;;;;;;5000291;28;20246;-65
2023/10/08 01:25:42;;;;;;;60.47;44.60;;;18.60;90.10;;;;;;4996258;28;20207;-64
2023/10/08 01:28:18;;;;;;;60.90;44.07;;;18.60;90.10;;;;;;4996539;28;20203;-64
2023/10/08 01:30:46;;;;;;;60.87;45.03;;;18.60;90.10;;;;;;4994110;28;20542;-65
2023/10/08 01:33:16;;;;;;;64.73;45.73;;;18.70;90.20;;;;;;4991998;28;20265;-64
2023/10/08 01:35:44;;;;;;;66.63;48.40;;;18.60;90.20;;;;;;4978064;28;20241;-64
2023/10/08 01:38:13;;;;;;;68.67;48.33;;;18.60;90.20;;;;;;4995438;28;20269;-65
2023/10/08 01:40:50;;;;;;;64.03;45.67;;;18.60;90.20;;;;;;4997498;28;20542;-64
2023/10/08 01:43:18;;;;;;;70.50;48.77;;;18.70;90.30;;;;;;4994373;28;20278;-64
2023/10/08 01:45:48;;;;;;;76.90;53.50;;;18.70;90.30;;;;;;4996605;28;20211;-65
2023/10/08 01:48:20;;;;;;;75.77;52.13;;;18.70;90.40;;;;;;4994567;28;20261;-64
2023/10/08 01:50:47;;;;;;;75.50;51.47;;;18.70;90.40;;;;;;4996304;28;20191;-65
2023/10/08 01:53:16;;;;;;;73.57;48.83;;;18.70;90.50;;;;;;4999671;28;20203;-64
2023/10/08 01:55:49;;;;;;;73.27;51.07;;;18.70;90.50;;;;;;4994203;28;20242;-64
2023/10/08 01:58:17;;;;;;;69.63;50.20;;;18.70;90.50;;;;;;4999630;28;20253;-64
2023/10/08 02:00:46;;;;;;;72.43;53.43;;;18.70;90.40;;;;;;4977183;28;20246;-65
2023/10/08 02:03:17;;;;;;;73.40;49.57;;;18.70;90.40;;;;;;4993871;28;20219;-65
2023/10/08 02:05:46;;;;;;;73.97;51.73;;;18.70;90.40;;;;;;4990341;28;20200;-65
2023/10/08 02:08:16;;;;;;;77.17;51.17;;;18.60;90.50;;;;;;4982151;28;20724;-65
2023/10/08 02:10:46;;;;;;;71.87;48.97;;;18.60;90.80;;;;;;4999860;28;20203;-65
2023/10/08 02:13:14;;;;;;;73.37;51.63;;;18.60;90.60;;;;;;4999391;28;20194;-64
2023/10/08 02:15:44;;;;;;;75.43;50.63;;;18.60;90.70;;;;;;4993911;28;20505;-65
2023/10/08 02:18:12;;;;;;;84.60;52.63;;;18.60;90.80;;;;;;4967818;28;20204;-64
2023/10/08 02:20:40;;;;;;;70.73;51.33;;;18.70;90.90;;;;;;4980010;28;20248;-65
2023/10/08 02:23:07;;;;;;;66.97;48.07;;;18.70;90.80;;;;;;4992061;28;20221;-64
2023/10/08 02:25:38;;;;;;;70.50;48.37;;;18.70;90.70;;;;;;4995995;28;20203;-65
2023/10/08 02:28:08;;;;;;;74.63;50.70;;;18.70;90.70;;;;;;4991694;28;20266;-65
2023/10/08 02:30:39;;;;;;;68.70;49.87;;;18.70;90.80;;;;;;4991165;28;20192;-64
2023/10/08 02:33:15;;;;;;;71.43;48.53;;;18.70;90.80;;;;;;4992585;28;20208;-64
2023/10/08 02:35:45;;;;;;;74.10;49.80;;;18.70;90.90;;;;;;4994546;28;20570;-65
2023/10/08 02:38:16;;;;;;;68.27;47.57;;;18.70;90.80;;;;;;4993023;28;20645;-64
2023/10/08 02:40:47;;;;;;;67.40;48.03;;;18.60;90.80;;;;;;4992319;28;20216;-64
2023/10/08 02:43:17;;;;;;;67.97;48.57;;;18.60;90.80;;;;;;4993216;28;20208;-65
2023/10/08 02:45:49;;;;;;;74.67;49.17;;;18.60;90.90;;;;;;4991507;28;20207;-64
2023/10/08 02:48:17;;;;;;;68.27;48.23;;;18.60;90.90;;;;;;4993208;28;20211;-64
2023/10/08 02:50:45;;;;;;;68.40;48.07;;;18.60;91.00;;;;;;4993588;28;20211;-64
2023/10/08 02:53:17;;;;;;;64.63;46.70;;;18.60;91.10;;;;;;4991890;28;20229;-64
2023/10/08 02:55:46;;;;;;;69.53;48.67;;;18.60;91.00;;;;;;4993173;28;20203;-65
2023/10/08 02:58:15;;;;;;;66.27;48.47;;;18.60;91.00;;;;;;4976521;28;20203;-65
2023/10/08 03:00:43;;;;;;;66.30;46.47;;;18.60;91.00;;;;;;4977173;28;20243;-65
2023/10/08 03:03:18;;;;;;;68.37;49.77;;;18.60;91.10;;;;;;4992055;28;20196;-65
2023/10/08 03:05:48;;;;;;;74.87;49.00;;;18.60;91.10;;;;;;4971823;28;20659;-64
2023/10/08 03:08:22;;;;;;;68.87;47.97;;;18.60;91.10;;;;;;4978520;28;20226;-64
2023/10/08 03:11:02;;;;;;;66.97;48.73;;;18.60;91.20;;;;;;4947610;28;20650;-65
2023/10/08 03:13:29;;;;;;;63.80;47.90;;;18.60;91.30;;;;;;4975362;28;20331;-64
2023/10/08 03:18:25;;;;;;;67.50;47.77;;;18.60;91.40;;;;;;4993412;28;20199;-65
2023/10/08 03:20:52;;;;;;;64.93;48.03;;;18.60;91.40;;;;;;4998271;28;20202;-64
2023/10/08 03:23:34;;;;;;;67.00;46.60;;;18.60;91.40;;;;;;4997850;28;20243;-64
2023/10/08 03:26:10;;;;;;;67.30;49.60;;;18.60;91.50;;;;;;4996101;28;20203;-64
2023/10/08 03:28:41;;;;;;;65.67;47.57;;;18.70;91.50;;;;;;4996349;28;20230;-64
2023/10/08 03:31:16;;;;;;;66.20;46.33;;;18.70;91.50;;;;;;4975337;28;20201;-64
2023/10/08 03:33:49;;;;;;;66.13;46.23;;;18.70;91.40;;;;;;4998577;28;20210;-64
2023/10/08 03:36:29;;;;;;;61.40;45.07;;;18.70;91.40;;;;;;5000729;28;20207;-64
2023/10/08 03:38:57;;;;;;;64.10;44.70;;;18.70;91.40;;;;;;4998866;28;20202;-64
2023/10/08 03:41:29;;;;;;;61.20;45.63;;;18.60;91.30;;;;;;5000487;28;20562;-64
2023/10/08 03:44:05;;;;;;;64.03;45.53;;;18.60;91.40;;;;;;4998442;28;20562;-64
2023/10/08 03:46:40;;;;;;;63.20;46.13;;;18.60;91.40;;;;;;4997258;28;20281;-64
2023/10/08 03:51:52;;;;;;;63.07;46.17;;;18.60;91.50;;;;;;5000604;28;20200;-64
2023/10/08 03:54:35;;;;;;;63.57;44.97;;;18.60;91.50;;;;;;5002047;28;20200;-64
2023/10/08 03:57:13;;;;;;;62.57;45.97;;;18.60;91.60;;;;;;5000559;28;20205;-64
2023/10/08 03:59:43;;;;;;;58.50;44.63;;;18.60;91.60;;;;;;4998233;28;20231;-64
2023/10/08 04:02:32;;;;;;;57.10;44.97;;;18.60;91.60;;;;;;4997586;28;20308;-65
2023/10/08 04:05:15;;;;;;;67.10;44.33;;;18.60;91.50;;;;;;4998516;28;20586;-64
2023/10/08 04:08:16;;;;;;;59.20;44.83;;;18.70;91.50;;;;;;4996422;28;20214;-65
2023/10/08 04:13:10;;;;;;;62.00;45.53;;;18.60;91.50;;;;;;4999787;28;20211;-64
2023/10/08 04:15:40;;;;;;;69.47;47.17;;;18.60;91.50;;;;;;5001392;28;20272;-65
2023/10/08 04:18:09;;;;;;;62.53;44.30;;;18.50;91.50;;;;;;4997414;28;20214;-65
2023/10/08 04:23:13;;;;;;;63.57;46.37;;;18.50;91.60;;;;;;5000770;28;20730;-64
2023/10/08 04:25:43;;;;;;;62.33;46.60;;;18.50;91.60;;;;;;5001769;28;20287;-64
2023/10/08 04:28:17;;;;;;;65.23;46.33;;;18.50;91.70;;;;;;5001051;28;20198;-64
2023/10/08 04:30:45;;;;;;;67.20;47.77;;;18.50;91.70;;;;;;4965180;28;20302;-64
2023/10/08 04:33:12;;;;;;;61.00;45.27;;;18.50;91.70;;;;;;4996331;28;20214;-64
2023/10/08 04:35:48;;;;;;;66.37;46.43;;;18.50;91.70;;;;;;4995782;28;20215;-64
2023/10/08 04:38:19;;;;;;;70.23;47.83;;;18.50;91.70;;;;;;4979488;28;20205;-65
2023/10/08 04:40:50;;;;;;;60.10;45.13;;;18.40;91.70;;;;;;4998388;28;20194;-64
2023/10/08 04:43:25;;;;;;;62.50;46.37;;;18.40;91.70;;;;;;5005178;28;20236;-64
2023/10/08 04:45:59;;;;;;;65.53;47.33;;;18.40;91.80;;;;;;4999098;28;20708;-64
2023/10/08 04:48:31;;;;;;;60.50;44.67;;;18.40;91.70;;;;;;4997592;28;20200;-64
2023/10/08 04:50:59;;;;;;;61.70;46.20;;;18.40;91.70;;;;;;4996958;28;20202;-64
2023/10/08 04:53:37;;;;;;;65.10;46.20;;;18.30;91.70;;;;;;4995846;28;20209;-64
2023/10/08 04:56:07;;;;;;;64.97;47.67;;;18.30;91.80;;;;;;4992832;28;20210;-64
2023/10/08 04:58:40;;;;;;;68.30;46.87;;;18.30;91.80;;;;;;4996215;28;20204;-64
2023/10/08 05:01:17;;;;;;;63.33;46.90;;;18.20;91.90;;;;;;5001044;28;20250;-64
2023/10/08 05:09:16;;;;;;;72.10;49.77;;;18.20;91.90;;;;;;4995290;28;20622;-64
2023/10/08 05:14:34;;;;;;;67.13;49.80;;;18.10;92.00;;;;;;4995025;28;20213;-64
2023/10/08 05:17:11;;;;;;;70.73;50.17;;;18.10;92.10;;;;;;4995736;28;20193;-65
2023/10/08 05:22:18;;;;;;;68.13;49.17;;;18.10;92.20;;;;;;4996260;28;20217;-64
2023/10/08 05:25:24;;;;;;;67.57;48.90;;;18.10;92.20;;;;;;4994805;28;20215;-64
2023/10/08 05:30:28;;;;;;;67.40;48.20;;;18.00;92.20;;;;;;4994622;28;20489;-64
2023/10/08 05:43:55;;;;;;;66.80;45.17;;;18.00;92.20;;;;;;4995695;28;20199;-64
2023/10/08 06:00:17;;;;;;;61.40;42.80;;;18.20;92.20;;;;;;4996924;28;20205;-65
2023/10/08 06:13:29;;;;;;;56.77;40.57;;;18.50;91.90;;;;;;4994547;28;20627;-64
2023/10/08 06:18:25;;;;;;;61.50;41.60;;;18.60;91.80;;;;;;4994669;28;20238;-64
2023/10/08 06:20:54;;;;;;;55.60;41.30;;;18.70;91.70;;;;;;4995930;28;20649;-64
2023/10/08 06:23:25;;;;;;;55.17;41.30;;;18.80;91.70;;;;;;4997105;28;20209;-64
2023/10/08 06:26:05;;;;;;;60.73;42.93;;;18.80;91.70;;;;;;4996916;28;20215;-65
2023/10/08 06:28:35;;;;;;;58.87;41.33;;;18.90;91.60;;;;;;4998690;28;20273;-64
2023/10/08 06:31:11;;;;;;;57.80;41.57;;;19.00;91.60;;;;;;4979878;28;20218;-64
2023/10/08 06:33:40;;;;;;;52.07;41.53;;;19.10;91.50;;;;;;4996843;28;20245;-64
2023/10/08 06:38:41;;;;;;;60.70;42.10;;;19.30;91.40;;;;;;4997482;28;20601;-64
2023/10/08 06:41:17;;;;;;;54.90;41.87;;;19.40;91.40;;;;;;4999222;28;20266;-64
2023/10/08 06:44:14;;;;;;;54.73;42.70;;;19.50;91.30;;;;;;5000194;28;20203;-65
2023/10/08 06:46:41;;;;;;;62.27;42.57;;;19.70;91.30;;;;;;5000342;28;20199;-64
2023/10/08 06:49:12;;;;;;;58.67;42.70;;;19.70;91.20;;;;;;4995656;28;20196;-64
2023/10/08 06:51:43;;;;;;;60.37;44.93;;;19.90;91.10;;;;;;4994631;28;20208;-65
2023/10/08 06:54:16;;;;;;;57.83;43.67;;;20.00;91.00;;;;;;4994713;28;20269;-64
2023/10/08 06:56:46;;;;;;;58.70;44.70;;;20.10;90.90;;;;;;5003428;28;20689;-65
2023/10/08 06:59:14;;;;;;;61.03;44.47;;;20.20;90.80;;;;;;5000989;28;20670;-65
2023/10/08 07:01:45;;;;;;;57.80;43.17;;;20.40;90.80;;;;;;5001025;28;20243;-65
2023/10/08 07:04:13;;;;;;;64.43;45.03;;;20.50;90.70;;;;;;5002690;28;20262;-65
2023/10/08 07:06:50;;;;;;;55.60;44.13;;;20.50;90.50;;;;;;5000415;28;20637;-65
2023/10/08 07:11:57;;;;;;;69.10;44.27;;;20.80;90.30;;;;;;4998711;28;20246;-65
2023/10/08 07:14:29;;;;;;;60.70;43.10;;;20.80;90.20;;;;;;5001896;28;20608;-65
2023/10/08 07:17:01;;;;;;;62.17;44.93;;;20.90;90.20;;;;;;5001968;28;20189;-65
2023/10/08 07:19:37;;;;;;;57.00;41.77;;;20.90;90.10;;;;;;4984565;28;20232;-65
2023/10/08 07:22:17;;;;;;;62.47;41.90;;;21.00;90.00;;;;;;4999284;28;20203;-65
2023/10/08 07:24:51;;;;;;;66.83;47.07;;;21.00;89.90;;;;;;4980808;28;20223;-65
2023/10/08 07:27:29;;;;;;;58.93;44.10;;;21.10;90.00;;;;;;4997234;28;20192;-65
2023/10/08 07:30:00;;;;;;;61.83;45.97;;;21.10;89.90;;;;;;5000079;28;20222;-65
2023/10/08 07:32:30;;;;;;;59.40;44.77;;;21.20;89.80;;;;;;5001229;28;20527;-65
2023/10/08 07:35:14;;;;;;;59.90;45.63;;;21.20;89.70;;;;;;5001305;28;20200;-64
2023/10/08 07:37:42;;;;;;;62.57;45.17;;;21.20;89.50;;;;;;4998810;28;20608;-64
2023/10/08 07:40:12;;;;;;;65.43;47.10;;;21.30;89.50;;;;;;5000023;28;20635;-64
2023/10/08 07:42:39;;;;;;;57.90;43.10;;;21.40;89.40;;;;;;4996262;28;20200;-64
2023/10/08 07:45:07;;;;;;;61.63;44.70;;;21.40;89.30;;;;;;4996815;28;20224;-64
2023/10/08 07:47:34;;;;;;;57.00;44.07;;;21.50;89.30;;;;;;4996859;28;20238;-64
2023/10/08 07:50:11;;;;;;;60.37;44.57;;;21.50;89.20;;;;;;4996022;28;20235;-64
2023/10/08 07:52:44;;;;;;;56.07;45.10;;;21.60;89.00;;;;;;4996077;28;20203;-65
2023/10/08 07:55:17;;;;;;;59.30;44.67;;;21.70;88.80;;;;;;4996957;28;20692;-65
2023/10/08 07:57:45;;;;;;;56.63;41.90;;;21.80;88.70;;;;;;4997003;28;20287;-65
2023/10/08 08:00:22;;;;;;;57.80;43.50;;;21.90;88.50;;;;;;4993844;28;20240;-66
2023/10/08 08:02:52;;;;;;;63.13;45.47;;;22.00;88.20;;;;;;4997392;28;20200;-65
2023/10/08 08:05:20;;;;;;;74.40;44.53;;;22.20;88.00;;;;;;4996557;28;20327;-65
2023/10/08 08:07:49;;;;;;;76.00;45.10;;;22.40;87.50;;;;;;4995370;28;20208;-65
2023/10/08 08:10:18;;;;;;;54.60;42.60;;;22.50;86.80;;;;;;4999682;28;20275;-65
2023/10/08 08:12:45;;;;;;;66.30;44.73;;;22.60;86.30;;;;;;4997173;28;20632;-65
2023/10/08 08:15:16;;;;;;;203.23;54.27;;;22.70;86.20;;;;;;4996637;28;20213;-65
2023/10/08 08:17:44;;;;;;;140.57;92.37;;;22.90;86.10;;;;;;4997065;28;20208;-65
2023/10/08 08:20:17;;;;;;;86.63;61.60;;;23.00;85.70;;;;;;4995878;28;20209;-65
2023/10/08 08:22:54;;;;;;;65.77;46.17;;;23.00;85.20;;;;;;4996460;28;20717;-65
2023/10/08 08:25:34;;;;;;;56.70;45.70;;;23.10;84.90;;;;;;4998850;28;20208;-64
2023/10/08 08:28:04;;;;;;;56.13;43.03;;;23.20;84.50;;;;;;4997449;28;20200;-64
2023/10/08 08:30:36;;;;;;;54.73;42.97;;;23.30;84.40;;;;;;4996733;28;20201;-65
2023/10/08 08:33:10;;;;;;;55.53;43.33;;;23.30;84.20;;;;;;4996495;28;20534;-65
2023/10/08 08:35:37;;;;;;;53.07;43.57;;;23.50;84.00;;;;;;4995578;28;20242;-65
2023/10/08 08:38:05;;;;;;;50.27;39.07;;;23.70;83.60;;;;;;4999581;28;20282;-65
2023/10/08 08:40:33;;;;;;;51.57;39.83;;;23.80;82.90;;;;;;4996667;28;20243;-65
2023/10/08 08:43:04;;;;;;;60.50;40.50;;;23.90;82.50;;;;;;5001224;28;20208;-65
2023/10/08 08:45:33;;;;;;;47.93;38.97;;;24.00;82.00;;;;;;4998400;28;20217;-65
2023/10/08 08:48:00;;;;;;;46.77;38.70;;;24.00;81.40;;;;;;4999250;28;20197;-64
2023/10/08 08:50:28;;;;;;;44.10;37.83;;;24.00;81.00;;;;;;4996089;28;20208;-65
2023/10/08 08:52:55;;;;;;;45.20;37.10;;;24.00;80.80;;;;;;4995435;28;20201;-65
2023/10/08 08:55:22;;;;;;;48.03;40.07;;;23.90;80.80;;;;;;4999132;28;20216;-65
2023/10/08 08:57:53;;;;;;;50.77;39.50;;;23.80;81.00;;;;;;4999994;28;20220;-65
2023/10/08 09:00:20;;;;;;;50.70;39.60;;;23.70;81.00;;;;;;4999282;28;20244;-65
2023/10/08 09:02:49;;;;;;;49.87;39.50;;;23.70;81.20;;;;;;4967520;28;20570;-64
2023/10/08 09:05:27;;;;;;;48.97;38.77;;;23.80;81.50;;;;;;4995785;28;20255;-64
2023/10/08 09:08:09;;;;;;;51.47;39.83;;;23.90;81.40;;;;;;4996664;28;20192;-65
2023/10/08 09:10:38;;;;;;;47.70;37.60;;;24.10;80.80;;;;;;4994423;28;20616;-65
2023/10/08 09:13:09;;;;;;;45.33;37.80;;;24.40;80.40;;;;;;5000110;28;20282;-65
2023/10/08 09:15:36;;;;;;;46.07;36.97;;;24.60;79.60;;;;;;4983617;28;20280;-67
2023/10/08 09:18:04;;;;;;;45.10;34.93;;;24.80;78.90;;;;;;5000244;28;20543;-64
2023/10/08 09:20:42;;;;;;;42.00;34.60;;;25.10;78.30;;;;;;4981312;28;20274;-65
2023/10/08 09:23:17;;;;;;;43.50;36.53;;;25.20;77.80;;;;;;4996197;28;20576;-64
2023/10/08 09:25:46;;;;;;;46.97;33.57;;;25.40;76.70;;;;;;4995595;28;20624;-64
2023/10/08 09:28:13;;;;;;;38.83;31.63;;;25.60;76.10;;;;;;5000074;28;20204;-64
2023/10/08 09:30:41;;;;;;;42.87;32.60;;;25.80;75.80;;;;;;5001461;28;20209;-64
2023/10/08 09:33:10;;;;;;;35.33;31.07;;;25.90;74.80;;;;;;5000697;28;20255;-65
2023/10/08 09:35:38;;;;;;;37.27;30.30;;;26.10;74.40;;;;;;4998638;28;20217;-65
2023/10/08 09:38:11;;;;;;;34.67;28.90;;;26.20;74.30;;;;;;4999320;28;20227;-64
2023/10/08 09:40:43;;;;;;;37.30;31.03;;;26.30;72.90;;;;;;4996672;28;20210;-64
2023/10/08 09:43:11;;;;;;;36.67;30.40;;;26.40;72.20;;;;;;4992077;28;20218;-64
2023/10/08 09:47:42;;;;;;;36.67;28.57;;;26.50;71.30;;;;;;5081246;27;20878;-80
2023/10/08 09:50:12;;;;;;;31.40;27.50;;;26.60;72.00;;;;;;5072588;28;20632;-79
2023/10/08 09:53:00;;;;;;;32.17;25.70;;;26.70;71.50;;;;;;5059699;28;20210;-79
2023/10/08 09:55:27;;;;;;;36.20;27.40;;;26.80;70.80;;;;;;5047931;28;20210;-79
2023/10/08 09:57:55;;;;;;;37.97;27.60;;;27.00;70.90;;;;;;5064510;28;20229;-79
2023/10/08 10:00:32;;;;;;;29.53;26.33;;;27.10;70.30;;;;;;5055542;28;20206;-80
2023/10/08 10:03:03;;;;;;;31.37;24.87;;;27.20;69.70;;;;;;5054350;28;20202;-80
2023/10/08 10:05:34;;;;;;;33.17;25.50;;;27.40;69.00;;;;;;5057138;28;20847;-79
2023/10/08 10:08:05;;;;;;;31.60;25.00;;;27.50;68.00;;;;;;5052315;28;20206;-79
2023/10/08 10:10:38;;;;;;;31.73;24.83;;;27.60;66.90;;;;;;5058638;28;20702;-80
2023/10/08 10:13:09;;;;;;;29.70;24.40;;;27.60;66.30;;;;;;5067686;28;20273;-80
2023/10/08 10:15:37;;;;;;;33.57;23.50;;;27.70;66.60;;;;;;5069983;28;20293;-81
2023/10/08 10:18:29;;;;;;;31.60;23.20;;;27.70;66.50;;;;;;5078119;28;20202;-80
2023/10/08 10:21:12;;;;;;;31.07;23.87;;;27.80;65.80;;;;;;5030418;28;20212;-79
2023/10/08 10:23:40;;;;;;;27.13;22.53;;;27.90;65.80;;;;;;5044765;28;20205;-80
2023/10/08 10:26:30;;;;;;;26.23;22.47;;;28.00;63.90;;;;;;5042135;28;20226;-79
2023/10/08 10:29:16;;;;;;;28.63;24.07;;;28.00;64.50;;;;;;5068859;28;20552;-79
2023/10/08 10:31:54;;;;;;;26.43;21.77;;;28.10;65.00;;;;;;5058764;28;20638;-81
2023/10/08 10:34:27;;;;;;;31.53;21.30;;;28.10;64.70;;;;;;5054081;28;20206;-79
2023/10/08 10:37:08;;;;;;;29.43;22.40;;;28.20;64.10;;;;;;5055989;28;20631;-80
2023/10/08 10:39:39;;;;;;;26.07;19.63;;;28.30;64.00;;;;;;5057078;28;20202;-79
2023/10/08 10:42:20;;;;;;;24.03;18.80;;;28.40;63.20;;;;;;5056021;28;20260;-79
2023/10/08 10:44:49;;;;;;;31.90;22.40;;;28.50;62.20;;;;;;5027649;28;20250;-80
2023/10/08 10:49:54;;;;;;;28.27;19.97;;;28.60;60.80;;;;;;5058515;28;20202;-78
2023/10/08 10:52:44;;;;;;;26.03;19.83;;;28.60;60.30;;;;;;5058544;28;20221;-80
2023/10/08 10:58:11;;;;;;;27.30;21.67;;;28.60;61.00;;;;;;5045039;28;20203;-79
2023/10/08 11:03:16;;;;;;;24.57;16.93;;;28.70;60.70;;;;;;5026417;28;20624;-79
2023/10/08 11:05:48;;;;;;;22.70;16.47;;;28.80;60.80;;;;;;5021576;28;20195;-80
2023/10/08 11:08:18;;;;;;;20.57;18.37;;;28.80;60.60;;;;;;5014508;28;20205;-80
2023/10/08 11:10:50;;;;;;;23.57;18.33;;;29.00;60.60;;;;;;5023850;28;20306;-80
2023/10/08 11:13:20;;;;;;;24.50;19.77;;;29.00;59.70;;;;;;5028610;28;20554;-79
2023/10/08 11:15:51;;;;;;;22.77;14.57;;;29.10;59.30;;;;;;5024908;28;20210;-81
2023/10/08 11:18:21;;;;;;;26.03;17.70;;;29.10;59.00;;;;;;5020937;28;20206;-81
2023/10/08 11:21:13;;;;;;;20.67;16.73;;;29.20;58.40;;;;;;5035161;28;20218;-79
2023/10/08 11:23:52;;;;;;;21.30;17.30;;;29.20;58.10;;;;;;5012514;28;20219;-78
2023/10/08 11:26:31;;;;;;;27.37;16.30;;;29.20;58.20;;;;;;5023800;28;20267;-80
2023/10/08 11:29:03;;;;;;;20.97;17.77;;;29.30;57.60;;;;;;5024226;28;20200;-78
2023/10/08 11:31:35;;;;;;;24.63;16.90;;;29.30;56.90;;;;;;5022397;28;20208;-78
2023/10/08 11:34:08;;;;;;;19.07;16.17;;;29.20;56.70;;;;;;5047696;28;20203;-78
2023/10/08 11:36:48;;;;;;;21.83;15.53;;;29.20;56.80;;;;;;5034923;28;20289;-79
2023/10/08 11:39:22;;;;;;;24.47;14.57;;;29.20;57.20;;;;;;5016936;28;20210;-77
2023/10/08 11:42:03;;;;;;;24.53;16.57;;;29.20;57.50;;;;;;5020396;28;20269;-77
2023/10/08 11:44:35;;;;;;;22.90;16.93;;;29.30;58.10;;;;;;5022135;28;20298;-77
2023/10/08 11:47:11;;;;;;;24.27;17.57;;;29.40;57.50;;;;;;5054783;28;20302;-78
2023/10/08 11:49:47;;;;;;;24.07;16.90;;;29.50;57.30;;;;;;5017478;28;20206;-77
2023/10/08 11:52:15;;;;;;;26.40;16.13;;;29.50;57.70;;;;;;4994981;28;20235;-79
2023/10/08 11:54:44;;;;;;;19.20;13.67;;;29.50;58.00;;;;;;5040302;28;20691;-78
2023/10/08 11:57:11;;;;;;;20.63;13.77;;;29.50;56.90;;;;;;5016207;28;20204;-79
2023/10/08 11:59:39;;;;;;;26.23;13.90;;;29.60;56.80;;;;;;5022572;28;20200;-78
2023/10/08 12:02:07;;;;;;;19.57;13.77;;;29.70;56.10;;;;;;5020444;28;20298;-80
2023/10/08 12:04:36;;;;;;;19.37;15.13;;;29.70;55.30;;;;;;5052348;28;20270;-79
2023/10/08 12:07:07;;;;;;;24.27;14.97;;;29.70;55.30;;;;;;5021176;28;20224;-79
2023/10/08 12:09:38;;;;;;;28.13;16.93;;;29.70;55.50;;;;;;4998212;28;20298;-78
2023/10/08 12:12:13;;;;;;;23.97;15.97;;;29.80;55.60;;;;;;5022863;28;20203;-80
2023/10/08 12:14:43;;;;;;;20.27;15.00;;;29.90;55.40;;;;;;5009260;28;20215;-80
2023/10/08 12:17:11;;;;;;;20.93;15.30;;;29.90;54.40;;;;;;5026348;28;20623;-79
2023/10/08 12:19:42;;;;;;;23.13;14.73;;;29.90;54.70;;;;;;5020853;28;20647;-78
2023/10/08 12:22:15;;;;;;;17.33;13.93;;;29.80;54.70;;;;;;5014938;28;20448;-79
2023/10/08 12:24:42;;;;;;;19.33;14.33;;;29.70;54.70;;;;;;5019013;28;20204;-79
2023/10/08 12:27:11;;;;;;;22.93;14.77;;;29.70;55.00;;;;;;5048354;28;20660;-79
2023/10/08 12:29:39;;;;;;;22.23;15.07;;;29.70;55.00;;;;;;5003683;28;20204;-79
2023/10/08 12:32:17;;;;;;;18.27;14.27;;;29.80;55.40;;;;;;5016225;28;20243;-79
2023/10/08 12:34:45;;;;;;;19.13;15.27;;;29.90;55.50;;;;;;5032416;28;20260;-80
2023/10/08 12:37:14;;;;;;;21.67;16.83;;;30.00;55.00;;;;;;5023070;28;20639;-80
2023/10/08 12:39:59;;;;;;;26.27;14.17;;;30.10;54.30;;;;;;5031247;28;20308;-79
2023/10/08 12:42:27;;;;;;;18.70;13.90;;;30.00;55.00;;;;;;5020504;28;20306;-80
2023/10/08 12:44:57;;;;;;;22.37;12.87;;;29.90;55.50;;;;;;5021334;28;20196;-79
2023/10/08 12:47:28;;;;;;;15.07;11.93;;;29.90;55.60;;;;;;5018292;28;20344;-79
2023/10/08 12:49:57;;;;;;;18.50;12.43;;;29.90;55.50;;;;;;5022587;28;20203;-79
2023/10/08 12:52:27;;;;;;;23.33;12.63;;;29.90;55.70;;;;;;5018079;28;20274;-79
2023/10/08 12:54:58;;;;;;;20.70;12.40;;;29.90;55.70;;;;;;5017927;28;20219;-79
2023/10/08 12:57:31;;;;;;;18.13;12.93;;;29.90;55.60;;;;;;5036478;28;20199;-79
2023/10/08 13:00:00;;;;;;;17.50;13.50;;;29.80;54.90;;;;;;4997451;28;20203;-80
2023/10/08 13:02:29;;;;;;;23.00;12.57;;;29.70;54.70;;;;;;5032078;28;20234;-79
2023/10/08 13:04:59;;;;;;;20.10;13.10;;;29.60;54.70;;;;;;5020811;28;20218;-79
2023/10/08 13:07:26;;;;;;;17.03;12.90;;;29.40;54.90;;;;;;5015738;28;20246;-79
2023/10/08 13:09:53;;;;;;;13.00;11.17;;;29.30;55.20;;;;;;5015349;28;20196;-79
2023/10/08 13:12:21;;;;;;;15.93;12.03;;;29.30;55.40;;;;;;5036623;28;20210;-79
2023/10/08 13:14:48;;;;;;;17.17;12.27;;;29.30;55.80;;;;;;5033945;28;20219;-78
2023/10/08 13:17:15;;;;;;;21.47;11.77;;;29.30;56.00;;;;;;5020045;28;20662;-79
2023/10/08 13:19:45;;;;;;;16.23;12.07;;;29.40;56.30;;;;;;5015293;28;20216;-79
2023/10/08 13:22:19;;;;;;;21.97;13.07;;;29.40;56.20;;;;;;5007334;28;20215;-79
2023/10/08 13:24:48;;;;;;;19.57;12.60;;;29.50;55.40;;;;;;5017972;28;20211;-79
2023/10/08 13:27:17;;;;;;;19.03;11.90;;;29.60;55.30;;;;;;5034220;28;20289;-79
2023/10/08 13:29:45;;;;;;;15.27;11.10;;;29.70;54.80;;;;;;5014967;28;20299;-78
2023/10/08 13:32:17;;;;;;;19.37;10.83;;;29.80;54.60;;;;;;5036485;28;20211;-79
2023/10/08 13:34:46;;;;;;;15.77;10.57;;;29.90;54.80;;;;;;5012569;28;20315;-78
2023/10/08 13:37:16;;;;;;;19.20;10.53;;;30.00;54.80;;;;;;5011534;28;20200;-79
2023/10/08 13:40:01;;;;;;;16.10;11.00;;;30.00;53.90;;;;;;5015045;28;20231;-78
2023/10/08 13:42:29;;;;;;;20.10;11.03;;;30.10;53.70;;;;;;5030584;28;20235;-78
2023/10/08 13:44:59;;;;;;;17.83;10.70;;;30.10;53.50;;;;;;5022019;28;20227;-79
2023/10/08 13:47:28;;;;;;;13.77;10.70;;;30.10;53.60;;;;;;5009886;28;20243;-79
2023/10/08 13:49:58;;;;;;;19.80;10.93;;;30.20;53.90;;;;;;5051944;28;20204;-79
2023/10/08 13:52:26;;;;;;;13.83;9.37;;;30.20;53.80;;;;;;5023841;28;20222;-78
2023/10/08 13:54:53;;;;;;;21.70;10.57;;;30.20;53.60;;;;;;5024544;28;20250;-80
2023/10/08 13:57:23;;;;;;;16.10;9.00;;;30.30;53.50;;;;;;5015183;28;20207;-79
2023/10/08 13:59:50;;;;;;;14.60;10.20;;;30.30;53.00;;;;;;5016366;28;20674;-79
2023/10/08 14:02:21;;;;;;;17.13;10.10;;;30.30;53.10;;;;;;5022054;28;20227;-78
2023/10/08 14:04:50;;;;;;;22.57;10.17;;;30.30;53.20;;;;;;5017961;28;20641;-79
2023/10/08 14:07:21;;;;;;;15.67;9.90;;;30.30;53.50;;;;;;5023801;28;20236;-79
2023/10/08 14:09:50;;;;;;;15.10;9.90;;;30.20;53.50;;;;;;5026053;28;20237;-79
2023/10/08 14:12:17;;;;;;;16.97;10.03;;;30.30;53.60;;;;;;5040646;28;20207;-79
2023/10/08 14:14:46;;;;;;;15.20;9.47;;;30.20;53.50;;;;;;5017667;28;20195;-79
2023/10/08 14:17:39;;;;;;;19.50;9.13;;;30.30;53.60;;;;;;5018649;28;20621;-79